createdAt,value
2023-04-25T00:01:58.828Z,5.60
2023-04-25T00:04:28.130Z,6.50
2023-04-25T00:06:56.981Z,9.95
2023-04-25T00:09:25.119Z,10.52
2023-04-25T00:11:53.510Z,12.30
2023-04-25T00:14:21.670Z,12.25
2023-04-25T00:16:52.751Z,14.70
2023-04-25T00:19:22.226Z,14.48
2023-04-25T00:21:50.937Z,15.13
2023-04-25T00:24:19.284Z,14.98
2023-04-25T00:26:47.780Z,14.73
2023-04-25T00:29:16.174Z,16.23
2023-04-25T00:31:44.619Z,13.57
2023-04-25T00:34:12.895Z,12.80
2023-04-25T00:36:42.653Z,12.68
2023-04-25T00:39:10.966Z,13.07
2023-04-25T00:41:39.550Z,14.48
2023-04-25T00:44:08.418Z,14.93
2023-04-25T00:46:37.923Z,16.73
2023-04-25T00:49:06.178Z,17.90
2023-04-25T00:51:35.372Z,17.48
2023-04-25T00:54:05.122Z,18.08
2023-04-25T00:56:33.542Z,17.30
2023-04-25T00:59:01.633Z,19.02
2023-04-25T01:04:19.221Z,19.88
2023-04-25T01:06:47.681Z,18.50
2023-04-25T01:09:17.279Z,18.80
2023-04-25T01:11:45.821Z,18.70
2023-04-25T01:14:13.929Z,18.02
2023-04-25T01:16:42.500Z,18.90
2023-04-25T01:19:13.137Z,19.35
2023-04-25T01:21:42.917Z,19.98
2023-04-25T01:24:11.165Z,20.60
2023-04-25T01:26:40.932Z,17.23
2023-04-25T01:29:09.804Z,17.15
2023-04-25T01:31:38.928Z,18.30
2023-04-25T01:34:07.087Z,19.42
2023-04-25T01:36:36.196Z,19.38
2023-04-25T01:39:05.931Z,18.83
2023-04-25T01:41:35.719Z,20.02
2023-04-25T01:44:04.234Z,19.75
2023-04-25T01:46:32.744Z,18.83
2023-04-25T01:49:01.083Z,18.75
2023-04-25T01:51:29.521Z,15.93
2023-04-25T01:53:58.419Z,18.42
2023-04-25T01:56:32.563Z,17.30
2023-04-25T01:59:01.052Z,18.63
2023-04-25T02:01:29.619Z,18.15
2023-04-25T02:03:58.327Z,17.65
2023-04-25T02:06:26.993Z,18.15
2023-04-25T02:08:55.156Z,19.65
2023-04-25T02:11:23.562Z,19.05
2023-04-25T02:13:53.218Z,18.98
2023-04-25T02:16:21.848Z,20.63
2023-04-25T02:18:50.154Z,21.92
2023-04-25T02:21:18.684Z,21.70
2023-04-25T02:23:49.935Z,23.55
2023-04-25T02:26:18.535Z,25.17
2023-04-25T02:28:46.692Z,26.73
2023-04-25T02:31:16.422Z,28.58
2023-04-25T02:33:44.774Z,30.45
2023-04-25T02:36:13.167Z,25.67
2023-04-25T02:38:41.379Z,24.83
2023-04-25T02:41:09.832Z,25.48
2023-04-25T02:43:37.931Z,27.05
2023-04-25T02:46:06.422Z,26.05
2023-04-25T02:48:36.015Z,26.35
2023-04-25T02:51:04.586Z,28.95
2023-04-25T02:53:32.750Z,28.23
2023-04-25T02:56:01.410Z,29.35
2023-04-25T02:58:29.713Z,29.98
2023-04-25T03:00:58.113Z,30.45
2023-04-25T03:03:26.724Z,28.15
2023-04-25T03:05:56.558Z,28.38
2023-04-25T03:08:26.134Z,23.65
2023-04-25T03:10:56.504Z,27.67
2023-04-25T03:13:24.651Z,26.20
2023-04-25T03:15:53.038Z,26.58
2023-04-25T03:18:21.313Z,25.33
2023-04-25T03:20:49.734Z,24.08
2023-04-25T03:23:19.274Z,24.92
2023-04-25T03:25:47.822Z,25.83
2023-04-25T03:28:16.243Z,24.92
2023-04-25T03:30:44.624Z,26.60
2023-04-25T03:33:12.996Z,24.58
2023-04-25T03:35:41.357Z,25.05
2023-04-25T03:38:09.626Z,26.30
2023-04-25T03:40:39.400Z,26.98
2023-04-25T03:43:08.021Z,28.15
2023-04-25T03:45:36.559Z,28.60
2023-04-25T03:48:05.216Z,27.98
2023-04-25T03:50:35.925Z,26.70
2023-04-25T03:53:04.025Z,18.88
2023-04-25T03:55:32.766Z,21.08
2023-04-25T03:58:02.470Z,22.10
2023-04-25T04:00:31.200Z,20.48
2023-04-25T04:02:59.515Z,19.60
2023-04-25T04:05:28.360Z,18.50
2023-04-25T04:07:56.599Z,19.75
2023-04-25T04:10:25.162Z,20.60
2023-04-25T04:12:53.599Z,19.73
2023-04-25T04:15:23.589Z,20.65
2023-04-25T04:17:51.732Z,17.38
2023-04-25T04:20:20.135Z,21.70
2023-04-25T04:22:49.116Z,21.55
2023-04-25T04:25:17.592Z,17.90
2023-04-25T04:27:47.012Z,20.20
2023-04-25T04:30:15.882Z,20.15
2023-04-25T04:32:45.828Z,18.95
2023-04-25T04:35:14.568Z,20.50
2023-04-25T04:37:42.892Z,16.05
2023-04-25T04:40:12.122Z,18.73
2023-04-25T04:42:40.241Z,18.35
2023-04-25T04:45:09.519Z,14.65
2023-04-25T04:47:37.881Z,16.75
2023-04-25T04:50:09.535Z,15.07
2023-04-25T04:52:38.398Z,17.00
2023-04-25T04:55:08.706Z,16.35
2023-04-25T04:57:37.063Z,16.85
2023-04-25T05:00:07.933Z,15.30
2023-04-25T05:02:36.375Z,17.38
2023-04-25T05:05:05.339Z,16.00
2023-04-25T05:07:35.049Z,15.20
2023-04-25T05:10:03.485Z,14.10
2023-04-25T05:12:31.733Z,14.82
2023-04-25T05:15:00.207Z,16.83
2023-04-25T05:17:28.310Z,16.35
2023-04-25T05:19:56.716Z,15.80
2023-04-25T05:22:25.064Z,15.68
2023-04-25T05:24:56.091Z,16.83
2023-04-25T05:27:24.438Z,16.30
2023-04-25T05:29:53.754Z,16.55
2023-04-25T05:32:22.153Z,15.65
2023-04-25T05:34:51.004Z,14.45
2023-04-25T05:37:19.431Z,16.42
2023-04-25T05:39:47.913Z,16.10
2023-04-25T05:42:17.450Z,16.00
2023-04-25T05:44:46.322Z,17.10
2023-04-25T05:47:14.540Z,15.55
2023-04-25T05:49:42.888Z,17.55
2023-04-25T05:52:11.005Z,16.02
2023-04-25T05:54:39.344Z,14.35
2023-04-25T05:57:07.625Z,15.07
2023-04-25T05:59:37.396Z,15.00
2023-04-25T06:02:05.766Z,15.30
2023-04-25T06:04:34.613Z,13.40
2023-04-25T06:07:02.978Z,12.90
2023-04-25T06:09:31.442Z,15.73
2023-04-25T06:11:59.560Z,14.52
2023-04-25T06:14:29.673Z,13.82
2023-04-25T06:16:59.557Z,15.27
2023-04-25T06:19:27.966Z,14.10
2023-04-25T06:21:56.143Z,15.52
2023-04-25T06:24:24.648Z,14.88
2023-04-25T06:26:53.657Z,24.83
2023-04-25T06:29:22.437Z,15.50
2023-04-25T06:31:51.281Z,12.70
2023-04-25T06:34:21.620Z,16.58
2023-04-25T06:36:49.839Z,14.95
2023-04-25T06:39:18.428Z,14.45
2023-04-25T06:41:46.748Z,14.68
2023-04-25T06:44:15.152Z,16.17
2023-04-25T06:46:43.363Z,14.45
2023-04-25T06:49:11.835Z,15.13
2023-04-25T06:51:41.317Z,16.02
2023-04-25T06:54:09.814Z,15.18
2023-04-25T06:56:38.078Z,16.08
2023-04-25T06:59:06.447Z,15.68
2023-04-25T07:01:34.611Z,14.13
2023-04-25T07:04:03.249Z,12.82
2023-04-25T07:06:32.046Z,14.00
2023-04-25T07:09:01.853Z,12.07
2023-04-25T07:11:29.963Z,15.18
2023-04-25T07:13:58.364Z,12.88
2023-04-25T07:16:26.562Z,14.63
2023-04-25T07:18:54.943Z,13.02
2023-04-25T07:21:23.278Z,12.45
2023-04-25T07:23:52.098Z,11.20
2023-04-25T07:26:21.626Z,10.73
2023-04-25T07:28:52.286Z,12.45
2023-04-25T07:31:20.985Z,11.43
2023-04-25T07:33:49.382Z,13.23
2023-04-25T07:36:17.586Z,13.77
2023-04-25T07:38:46.354Z,12.90
2023-04-25T07:41:14.500Z,12.30
2023-04-25T07:43:44.241Z,14.02
2023-04-25T07:46:12.626Z,14.77
2023-04-25T07:48:41.486Z,11.88
2023-04-25T07:51:09.612Z,12.35
2023-04-25T07:53:38.845Z,12.43
2023-04-25T07:56:08.052Z,11.52
2023-04-25T07:58:36.216Z,12.75
2023-04-25T08:01:06.410Z,12.38
2023-04-25T08:03:34.712Z,12.57
2023-04-25T08:06:05.781Z,13.93
2023-04-25T08:08:36.331Z,13.98
2023-04-25T08:11:04.758Z,14.02
2023-04-25T08:13:32.860Z,14.07
2023-04-25T08:16:02.011Z,14.32
2023-04-25T08:18:31.767Z,15.32
2023-04-25T08:21:00.625Z,15.10
2023-04-25T08:23:29.092Z,14.88
2023-04-25T08:25:57.451Z,15.40
2023-04-25T08:28:25.590Z,15.23
2023-04-25T08:30:54.365Z,15.23
2023-04-25T08:33:22.726Z,14.70
2023-04-25T08:35:52.606Z,14.20
2023-04-25T08:38:21.289Z,14.77
2023-04-25T08:40:52.650Z,12.93
2023-04-25T08:43:22.021Z,12.43
2023-04-25T08:45:50.528Z,11.63
2023-04-25T08:48:19.201Z,11.38
2023-04-25T08:50:51.207Z,10.77
2023-04-25T08:53:24.049Z,11.63
2023-04-25T08:55:52.856Z,6.82
2023-04-25T08:58:21.177Z,8.38
2023-04-25T09:00:49.937Z,3.65
2023-04-25T09:03:18.543Z,4.38
2023-04-25T09:05:47.125Z,4.53
2023-04-25T09:08:15.577Z,4.30
2023-04-25T09:10:45.482Z,4.40
2023-04-25T09:13:16.692Z,4.38
2023-04-25T09:15:53.149Z,3.13
2023-04-25T09:18:29.817Z,3.63
2023-04-25T09:21:04.141Z,3.13
2023-04-25T09:23:42.548Z,3.47
2023-04-25T09:26:12.527Z,3.42
2023-04-25T09:28:40.699Z,3.40
2023-04-25T09:31:12.468Z,3.28
2023-04-25T09:33:41.172Z,3.60
2023-04-25T09:36:12.075Z,3.25
2023-04-25T09:38:43.545Z,4.10
2023-04-25T09:41:13.603Z,4.60
2023-04-25T09:43:42.048Z,4.30
2023-04-25T09:46:12.166Z,4.53
2023-04-25T09:48:40.647Z,4.85
2023-04-25T09:51:10.729Z,4.55
2023-04-25T09:53:40.075Z,5.13
2023-04-25T09:56:10.396Z,4.55
2023-04-25T09:58:40.994Z,3.88
2023-04-25T10:01:10.832Z,4.63
2023-04-25T10:03:41.599Z,4.10
2023-04-25T10:06:12.021Z,4.10
2023-04-25T10:08:41.241Z,3.90
2023-04-25T10:11:10.859Z,3.72
2023-04-25T10:13:40.823Z,4.53
2023-04-25T10:16:09.457Z,4.25
2023-04-25T10:18:38.598Z,4.90
2023-04-25T10:21:07.377Z,5.07
2023-04-25T10:23:36.339Z,4.75
2023-04-25T10:26:05.100Z,4.78
2023-04-25T10:29:01.867Z,4.32
2023-04-25T10:31:32.507Z,5.20
2023-04-25T10:34:02.576Z,5.10
2023-04-25T10:36:34.780Z,4.47
2023-04-25T10:39:08.382Z,5.40
2023-04-25T10:41:49.432Z,5.10
2023-04-25T10:44:19.037Z,5.10
2023-04-25T10:46:47.904Z,5.07
2023-04-25T10:49:35.372Z,5.57
2023-04-25T10:52:20.914Z,5.43
2023-04-25T10:54:49.704Z,6.05
2023-04-25T10:57:30.394Z,5.00
2023-04-25T11:00:06.289Z,5.70
2023-04-25T11:02:36.083Z,5.65
2023-04-25T11:05:05.300Z,5.15
2023-04-25T11:07:39.910Z,4.45
2023-04-25T11:10:09.085Z,4.43
2023-04-25T11:12:37.712Z,4.30
2023-04-25T11:15:09.476Z,4.47
2023-04-25T11:17:38.161Z,5.20
2023-04-25T11:20:12.389Z,4.63
2023-04-25T11:22:42.672Z,4.40
2023-04-25T11:25:12.934Z,3.47
2023-04-25T11:27:42.616Z,3.70
2023-04-25T11:30:17.429Z,3.60
2023-04-25T11:32:46.694Z,4.55
2023-04-25T11:35:16.093Z,4.00
2023-04-25T11:37:45.442Z,4.55
2023-04-25T11:40:14.186Z,4.60
2023-04-25T11:42:46.737Z,4.70
2023-04-25T11:47:45.098Z,3.92
2023-04-25T11:50:15.132Z,3.67
2023-04-25T11:52:45.387Z,5.00
2023-04-25T11:55:16.602Z,4.85
2023-04-25T11:57:46.704Z,5.15
2023-04-25T12:00:19.149Z,4.72
2023-04-25T12:02:49.581Z,6.60
2023-04-25T12:07:50.115Z,6.97
2023-04-25T12:10:20.429Z,6.70
2023-04-25T12:12:50.096Z,8.55
2023-04-25T12:15:21.287Z,7.20
2023-04-25T12:17:50.738Z,5.82
2023-04-25T12:20:20.730Z,6.22
2023-04-25T12:22:51.590Z,7.03
2023-04-25T12:25:39.084Z,6.95
2023-04-25T12:28:15.091Z,6.95
2023-04-25T12:30:59.729Z,8.50
2023-04-25T12:33:29.328Z,6.97
2023-04-25T12:35:58.407Z,6.88
2023-04-25T12:38:28.462Z,6.85
2023-04-25T12:40:56.649Z,6.95
2023-04-25T12:43:25.567Z,6.22
2023-04-25T12:45:55.037Z,6.82
2023-04-25T12:48:25.447Z,6.35
2023-04-25T12:50:54.110Z,6.32
2023-04-25T12:53:24.625Z,7.53
2023-04-25T12:55:53.206Z,9.85
2023-04-25T12:58:22.113Z,7.22
2023-04-25T13:00:50.699Z,7.53
2023-04-25T13:03:19.817Z,5.30
2023-04-25T13:05:49.778Z,5.80
2023-04-25T13:08:18.143Z,5.97
2023-04-25T13:10:46.618Z,5.57
2023-04-25T13:13:15.081Z,7.35
2023-04-25T13:15:43.202Z,4.70
2023-04-25T13:18:12.303Z,5.90
2023-04-25T13:20:40.661Z,6.93
2023-04-25T13:23:10.849Z,8.20
2023-04-25T13:25:38.967Z,5.55
2023-04-25T13:28:07.429Z,5.60
2023-04-25T13:30:35.648Z,5.22
2023-04-25T13:33:05.231Z,5.22
2023-04-25T13:35:33.520Z,6.30
2023-04-25T13:38:02.040Z,5.60
2023-04-25T13:40:32.997Z,6.13
2023-04-25T13:43:01.563Z,5.22
2023-04-25T13:45:31.502Z,4.63
2023-04-25T13:48:01.589Z,4.90
2023-04-25T13:50:29.872Z,5.10
2023-04-25T13:52:58.356Z,5.97
2023-04-25T13:55:26.482Z,5.40
2023-04-25T13:57:56.343Z,6.40
2023-04-25T14:00:24.655Z,7.88
2023-04-25T14:02:53.224Z,7.85
2023-04-25T14:05:21.699Z,8.73
2023-04-25T14:07:50.062Z,10.55
2023-04-25T14:10:18.522Z,12.02
2023-04-25T14:12:47.167Z,9.85
2023-04-25T14:15:16.816Z,9.77
2023-04-25T14:17:46.921Z,9.65
2023-04-25T14:20:15.225Z,10.20
2023-04-25T14:22:44.680Z,8.07
2023-04-25T14:25:13.116Z,6.80
2023-04-25T14:27:41.655Z,8.32
2023-04-25T14:30:12.617Z,7.53
2023-04-25T14:32:42.683Z,6.17
2023-04-25T14:35:11.240Z,6.57
2023-04-25T14:37:40.294Z,5.97
2023-04-25T14:40:11.926Z,7.28
2023-04-25T14:42:40.726Z,7.03
2023-04-25T14:45:09.970Z,7.05
2023-04-25T14:47:38.868Z,6.63
2023-04-25T14:50:09.576Z,6.68
2023-04-25T14:52:38.146Z,6.10
2023-04-25T14:55:06.761Z,5.40
2023-04-25T14:57:35.514Z,5.22
2023-04-25T15:00:09.503Z,5.93
2023-04-25T15:02:38.609Z,5.05
2023-04-25T15:05:09.514Z,4.80
2023-04-25T15:07:38.111Z,4.63
2023-04-25T15:10:07.316Z,4.97
2023-04-25T15:12:35.708Z,5.68
2023-04-25T15:15:04.257Z,4.90
2023-04-25T15:17:32.757Z,4.70
2023-04-25T15:20:01.274Z,5.80
2023-04-25T15:22:31.978Z,6.20
2023-04-25T15:25:00.142Z,5.57
2023-04-25T15:27:29.449Z,5.78
2023-04-25T15:29:57.725Z,5.43
2023-04-25T15:32:26.484Z,6.07
2023-04-25T15:34:54.717Z,5.85
2023-04-25T15:37:23.287Z,6.65
2023-04-25T15:40:02.736Z,6.30
2023-04-25T15:42:32.043Z,5.90
2023-04-25T15:45:00.178Z,6.40
2023-04-25T15:47:28.590Z,6.63
2023-04-25T15:49:56.794Z,6.20
2023-04-25T15:52:25.206Z,6.13
2023-04-25T15:54:55.112Z,3.63
2023-04-25T15:57:24.135Z,4.43
2023-04-25T15:59:52.336Z,5.07
2023-04-25T16:02:21.018Z,4.53
2023-04-25T16:04:49.581Z,5.28
2023-04-25T16:07:18.196Z,6.15
2023-04-25T16:09:46.836Z,6.13
2023-04-25T16:12:17.434Z,4.50
2023-04-25T16:14:45.576Z,3.58
2023-04-25T16:17:14.122Z,3.80
2023-04-25T16:19:42.472Z,3.90
2023-04-25T16:22:13.250Z,3.17
2023-04-25T16:24:41.362Z,3.80
2023-04-25T16:27:10.035Z,4.00
2023-04-25T16:29:39.861Z,3.72
2023-04-25T16:32:08.358Z,4.15
2023-04-25T16:34:36.437Z,3.22
2023-04-25T16:37:05.029Z,3.75
2023-04-25T16:39:33.402Z,5.32
2023-04-25T16:42:04.096Z,6.28
2023-04-25T16:44:33.158Z,5.20
2023-04-25T16:47:03.985Z,4.95
2023-04-25T16:49:32.118Z,5.28
2023-04-25T16:52:00.583Z,5.45
2023-04-25T16:54:29.023Z,5.57
2023-04-25T16:56:58.145Z,5.97
2023-04-25T16:59:26.317Z,6.38
2023-04-25T17:01:54.875Z,6.25
2023-04-25T17:04:24.577Z,6.03
2023-04-25T17:06:53.122Z,6.32
2023-04-25T17:09:21.478Z,6.00
2023-04-25T17:11:50.077Z,6.43
2023-04-25T17:14:18.209Z,6.78
2023-04-25T17:16:47.466Z,7.03
2023-04-25T17:19:15.811Z,7.68
2023-04-25T17:21:45.749Z,8.07
2023-04-25T17:24:15.670Z,7.93
2023-04-25T17:26:44.376Z,8.57
2023-04-25T17:29:13.611Z,8.02
2023-04-25T17:31:42.627Z,8.15
2023-04-25T17:34:16.449Z,8.27
2023-04-25T17:36:46.337Z,8.32
2023-04-25T17:39:17.407Z,9.15
2023-04-25T17:41:46.337Z,8.50
2023-04-25T17:44:14.793Z,8.57
2023-04-25T17:46:43.215Z,8.45
2023-04-25T17:49:11.602Z,9.55
2023-04-25T17:51:40.072Z,9.20
2023-04-25T17:54:09.545Z,8.68
2023-04-25T17:56:38.851Z,8.82
2023-04-25T17:59:07.218Z,8.73
2023-04-25T18:01:35.948Z,9.15
2023-04-25T18:04:05.357Z,7.03
2023-04-25T18:06:34.092Z,7.55
2023-04-25T18:09:02.492Z,8.15
2023-04-25T18:11:32.254Z,7.68
2023-04-25T18:14:01.123Z,9.15
2023-04-25T18:16:29.599Z,8.15
2023-04-25T18:19:06.115Z,8.02
2023-04-25T18:21:34.808Z,8.75
2023-04-25T18:24:02.992Z,8.52
2023-04-25T18:26:32.797Z,9.02
2023-04-25T18:29:01.397Z,8.65
2023-04-25T18:31:32.055Z,9.15
2023-04-25T18:34:00.654Z,9.43
2023-04-25T18:36:29.543Z,8.93
2023-04-25T18:38:59.642Z,9.93
2023-04-25T18:41:51.584Z,9.02
2023-04-25T18:44:21.592Z,9.27
2023-04-25T18:46:49.949Z,9.68
2023-04-25T18:49:18.425Z,10.27
2023-04-25T18:51:48.704Z,10.57
2023-04-25T18:54:16.873Z,11.43
2023-04-25T18:56:46.758Z,12.43
2023-04-25T18:59:15.516Z,13.75
2023-04-25T19:01:44.036Z,12.95
2023-04-25T19:04:12.210Z,13.95
2023-04-25T19:06:41.067Z,12.93
2023-04-25T19:09:10.465Z,13.45
2023-04-25T19:11:39.298Z,17.08
2023-04-25T19:14:08.776Z,17.48
2023-04-25T19:16:39.048Z,19.73
2023-04-25T19:19:08.668Z,23.17
2023-04-25T19:21:37.476Z,24.20
2023-04-25T19:24:07.112Z,24.85
2023-04-25T19:26:35.986Z,24.52
2023-04-25T19:29:05.868Z,24.08
2023-04-25T19:31:37.697Z,23.52
2023-04-25T19:34:06.634Z,22.55
2023-04-25T19:36:35.718Z,21.60
2023-04-25T19:39:04.703Z,20.48
2023-04-25T19:41:35.162Z,19.35
2023-04-25T19:44:04.668Z,20.08
2023-04-25T19:46:33.553Z,18.95
2023-04-25T19:49:05.385Z,18.83
2023-04-25T19:51:35.548Z,20.25
2023-04-25T19:54:04.222Z,18.58
2023-04-25T19:56:32.665Z,20.45
2023-04-25T19:59:00.904Z,21.20
2023-04-25T20:01:29.424Z,22.33
2023-04-25T20:03:57.567Z,21.65
2023-04-25T20:06:27.411Z,21.80
2023-04-25T20:08:55.616Z,21.77
2023-04-25T20:11:24.043Z,19.60
2023-04-25T20:13:52.415Z,19.73
2023-04-25T20:16:21.850Z,17.88
2023-04-25T20:18:50.828Z,18.27
2023-04-25T20:21:19.772Z,17.23
2023-04-25T20:23:49.372Z,17.05
2023-04-25T20:26:17.757Z,17.67
2023-04-25T20:28:46.346Z,16.33
2023-04-25T20:31:14.882Z,16.77
2023-04-25T20:33:43.724Z,17.83
2023-04-25T20:36:12.392Z,16.50
2023-04-25T20:38:40.670Z,18.45
2023-04-25T20:41:10.816Z,16.75
2023-04-25T20:43:40.409Z,16.50
2023-04-25T20:46:09.194Z,16.25
2023-04-25T20:48:37.393Z,16.83
2023-04-25T20:51:07.285Z,16.77
2023-04-25T20:53:35.584Z,16.73
2023-04-25T20:56:04.404Z,14.93
2023-04-25T20:58:33.971Z,15.25
2023-04-25T21:01:03.073Z,15.13
2023-04-25T21:03:31.508Z,14.57
2023-04-25T21:06:00.189Z,14.30
2023-04-25T21:08:28.365Z,13.07
2023-04-25T21:10:56.841Z,13.65
2023-04-25T21:13:27.148Z,12.88
2023-04-25T21:15:57.501Z,13.27
2023-04-25T21:18:25.967Z,12.45
2023-04-25T21:20:54.486Z,12.75
2023-04-25T21:23:22.642Z,13.02
2023-04-25T21:25:53.368Z,12.43
2023-04-25T21:28:21.626Z,12.55
2023-04-25T21:30:50.052Z,13.50
2023-04-25T21:33:19.641Z,13.38
2023-04-25T21:35:48.118Z,13.00
2023-04-25T21:38:16.268Z,13.93
2023-04-25T21:40:44.909Z,15.35
2023-04-25T21:43:13.245Z,14.57
2023-04-25T21:46:05.692Z,13.82
2023-04-25T21:48:31.319Z,15.05
2023-04-25T21:51:00.213Z,14.02
2023-04-25T21:53:28.345Z,14.40
2023-04-25T21:55:57.121Z,14.75
2023-04-25T21:58:25.396Z,13.43
2023-04-25T22:00:53.945Z,14.13
2023-04-25T22:03:22.196Z,13.88
2023-04-25T22:05:52.002Z,12.70
2023-04-25T22:08:20.687Z,12.48
2023-04-25T22:10:49.219Z,12.15
2023-04-25T22:13:17.354Z,11.52
2023-04-25T22:15:45.881Z,11.02
2023-04-25T22:18:16.341Z,11.70
2023-04-25T22:20:45.084Z,10.40
2023-04-25T22:23:14.754Z,10.10
2023-04-25T22:25:43.188Z,9.07
2023-04-25T22:28:12.626Z,8.95
2023-04-25T22:30:41.045Z,8.77
2023-04-25T22:33:09.336Z,9.82
2023-04-25T22:35:37.770Z,9.93
2023-04-25T22:38:05.884Z,10.15
2023-04-25T22:40:35.696Z,8.93
2023-04-25T22:43:03.781Z,9.65
2023-04-25T22:45:32.508Z,10.13
2023-04-25T22:48:00.829Z,9.57
2023-04-25T22:50:29.266Z,8.07
2023-04-25T22:52:57.363Z,7.13
2023-04-25T22:55:26.450Z,6.82
2023-04-25T22:57:56.298Z,5.72
2023-04-25T23:00:26.222Z,5.78
2023-04-25T23:02:54.974Z,6.32
2023-04-25T23:05:24.641Z,6.75
2023-04-25T23:07:52.773Z,5.90
2023-04-25T23:10:21.255Z,5.25
2023-04-25T23:12:49.368Z,5.93
2023-04-25T23:15:20.565Z,6.30
2023-04-25T23:17:48.811Z,5.90
2023-04-25T23:20:17.626Z,5.43
2023-04-25T23:22:45.834Z,5.88
2023-04-25T23:25:14.882Z,5.40
2023-04-25T23:27:43.047Z,5.70
2023-04-25T23:30:12.316Z,6.40
2023-04-25T23:32:42.041Z,5.97
2023-04-25T23:35:11.342Z,5.18
2023-04-25T23:37:40.259Z,4.80
2023-04-25T23:40:11.916Z,4.95
2023-04-25T23:42:40.945Z,5.90
2023-04-25T23:45:10.309Z,6.15
2023-04-25T23:47:38.573Z,6.60
2023-04-25T23:50:09.740Z,6.30
2023-04-25T23:52:38.288Z,7.30
2023-04-25T23:55:07.768Z,5.93
2023-04-25T23:57:36.211Z,6.43
